Gan-triumph — C6YK7 — position and weather

sailwx.info

Track history (hours):
 
Tides and Currents Weather Stations Pressure Air Temp Water Temp Dewpoint Dewpoint Depression Visibility Wind Speed Wind Dir Waves Ship Positions

Gan-triumph

Last reported at 2018-Jun-25 08:00 UTC. Time now 2018-Jun-25 08:09 UTC.
Position N 46°19' W 004°42'.

Length 183 m; draft 8 m.

Type: Ship. MMSI: 311036700.

Date/timePositionNaut miles runAvg speedWind from/ knotsBaromVisibWave heightAir tempDewpointWater temp
2018-Jun-25 08:00N 46°19' W 004°42'713.4
2018-Jun-25 07:30N 46°25' W 004°45'612.9
2018-Jun-25 07:00N 46°31' W 004°49'612.3
2018-Jun-25 06:30N 46°37' W 004°52'612.3
2018-Jun-25 06:00N 46°42' W 004°56'612.6
2018-Jun-25 05:30N 46°48' W 004°59'612.8
2018-Jun-25 05:00N 46°54' W 005°02'713.2
2018-Jun-25 04:30N 47°01' W 005°05'713.3
2018-Jun-25 04:00N 47°07' W 005°08'713.5
2018-Jun-25 03:30N 47°13' W 005°11'612.9
2018-Jun-25 03:00N 47°19' W 005°15'713.4
2018-Jun-25 02:30N 47°25' W 005°18'713.5
2018-Jun-25 02:00N 47°32' W 005°22'613.0
2018-Jun-25 01:30N 47°38' W 005°26'713.5
2018-Jun-25 01:00N 47°44' W 005°30'612.9
2018-Jun-25 00:30N 47°50' W 005°34'613.0
2018-Jun-25 00:00N 47°56' W 005°37'712.5
2018-Jun-24 23:25N 48°03' W 005°40'1012.2
2018-Jun-24 22:35N 48°13' W 005°45'111.8
2018-Jun-24 22:29N 48°14' W 005°46'1112.3
2018-Jun-24 21:36N 48°23' W 005°53'212.4
2018-Jun-24 21:26N 48°25' W 005°55'512.5
2018-Jun-24 21:00N 48°30' W 005°59'713.6
2018-Jun-24 20:30N 48°36' W 006°02'813.7
2018-Jun-24 19:55N 48°44' W 006°00'614.2
2018-Jun-24 19:30N 48°49' W 005°56'714.3
2018-Jun-24 19:01N 48°55' W 005°50'714.3
2018-Jun-24 18:31N 48°59' W 005°41'714.4
2018-Jun-24 18:01N 49°03' W 005°32'713.6
2018-Jun-24 17:30N 49°10' W 005°29'713.6
2018-Jun-24 17:00N 49°16' W 005°25'713.4
2018-Jun-24 16:30N 49°23' W 005°22'713.1
2018-Jun-24 16:00N 49°29' W 005°18'712.9
2018-Jun-24 15:30N 49°35' W 005°15'612.7
2018-Jun-24 15:00N 49°41' W 005°12'612.6
2018-Jun-24 14:30N 49°47' W 005°09'812.5
2018-Jun-24 13:51N 49°55' W 005°05'412.7
2018-Jun-24 13:30N 49°59' W 005°03'612.5
2018-Jun-24 13:00N 50°05' W 005°01'3 0.4
2018-Jun-24 05:54N 50°08' W 005°03'0 0.0
2018-Jun-24 05:30N 50°08' W 005°03'1 2.8
2018-Jun-24 05:00N 50°06' W 005°02'5 9.5
2018-Jun-24 04:30N 50°02' W 005°02'5 9.7
2018-Jun-24 03:59N 49°57' W 005°04'613.0
2018-Jun-24 03:29N 49°50' W 005°06'613.2
2018-Jun-24 03:00N 49°44' W 005°09'610.9
2018-Jun-24 02:27N 49°41' W 005°17'613.4
2018-Jun-24 02:00N 49°41' W 005°26'713.5
2018-Jun-24 01:30N 49°41' W 005°36'713.2
2018-Jun-24 01:00N 49°44' W 005°45'713.2
2018-Jun-24 00:29N 49°47' W 005°55'612.5
2018-Jun-24 00:00N 49°51' W 006°01'713.4
2018-Jun-23 23:30N 49°58' W 006°01'612.8
2018-Jun-23 23:00N 50°04' W 006°01'612.5
2018-Jun-23 22:30N 50°10' W 006°01'612.5
2018-Jun-23 22:00N 50°17' W 006°01'612.8
2018-Jun-23 21:30N 50°23' W 006°01'612.8
2018-Jun-23 21:00N 50°30' W 006°00'612.9
2018-Jun-23 20:30N 50°36' W 005°58'713.5
2018-Jun-23 20:00N 50°42' W 005°55'713.5
2018-Jun-23 19:30N 50°49' W 005°51'713.6
2018-Jun-23 19:00N 50°55' W 005°46'713.7
2018-Jun-23 18:30N 51°01' W 005°41'713.6
2018-Jun-23 18:00N 51°07' W 005°37'713.5
2018-Jun-23 17:30N 51°13' W 005°32'713.3
2018-Jun-23 17:00N 51°19' W 005°28'713.2
2018-Jun-23 16:30N 51°25' W 005°23'713.3
2018-Jun-23 16:00N 51°31' W 005°18'613.0
2018-Jun-23 15:30N 51°37' W 005°14'4 8.0
2018-Jun-23 15:01N 51°40' W 005°11'5 9.8
2018-Jun-23 14:31N 51°42' W 005°03'0 0.3
2018-Jun-23 13:58N 51°42' W 005°03'0 0.0
2018-Jun-23 13:28N 51°42' W 005°03'0 0.0
2018-Jun-23 12:58N 51°42' W 005°03'0 0.0
2018-Jun-23 12:28N 51°42' W 005°03'0 0.0
2018-Jun-23 11:58N 51°42' W 005°03'0 0.0
2018-Jun-23 11:25N 51°42' W 005°03'0 0.0
2018-Jun-23 10:58N 51°42' W 005°03'0 0.0
2018-Jun-23 10:28N 51°42' W 005°03'0 0.0
2018-Jun-23 09:58N 51°42' W 005°03'0 0.0
2018-Jun-23 09:25N 51°42' W 005°03'0 0.0
2018-Jun-23 08:58N 51°42' W 005°03'0 0.0
2018-Jun-23 08:28N 51°42' W 005°03'0 0.0
2018-Jun-23 07:58N 51°42' W 005°03'0 0.0
2018-Jun-23 07:28N 51°42' W 005°03'0 0.0
2018-Jun-23 06:58N 51°42' W 005°03'0 0.0
2018-Jun-23 06:28N 51°42' W 005°03'0 0.0
2018-Jun-23 05:58N 51°42' W 005°03'0 0.0
2018-Jun-23 05:28N 51°42' W 005°03'0 0.0
2018-Jun-23 04:58N 51°42' W 005°03'0 0.0
2018-Jun-23 04:28N 51°42' W 005°03'0 0.0
2018-Jun-23 03:58N 51°42' W 005°03'0 0.0
2018-Jun-23 03:28N 51°42' W 005°03'0 0.0
2018-Jun-23 02:58N 51°42' W 005°03'0 0.0
2018-Jun-23 02:28N 51°42' W 005°03'0 0.0
2018-Jun-23 01:58N 51°42' W 005°03'0 0.0
2018-Jun-23 01:28N 51°42' W 005°03'0 0.0
2018-Jun-23 00:58N 51°42' W 005°03'0 0.0
2018-Jun-23 00:28N 51°42' W 005°03'0 0.0
2018-Jun-22 23:58N 51°42' W 005°03'0 0.0
2018-Jun-22 23:28N 51°42' W 005°03'0 0.0
2018-Jun-22 22:55N 51°42' W 005°03'0 0.0
2018-Jun-22 22:28N 51°42' W 005°03'0 0.0
2018-Jun-22 21:58N 51°42' W 005°03'0 0.0
2018-Jun-22 21:28N 51°42' W 005°03'0 0.0
2018-Jun-22 20:58N 51°42' W 005°03'0 0.0
2018-Jun-22 20:28N 51°42' W 005°03'0 0.0
2018-Jun-22 19:58N 51°42' W 005°03'0 0.0
2018-Jun-22 19:28N 51°42' W 005°03'0 0.0
2018-Jun-22 18:58N 51°42' W 005°03'0 0.0
2018-Jun-22 18:28N 51°42' W 005°03'0 0.0
2018-Jun-22 17:58N 51°42' W 005°03'0 0.0
2018-Jun-22 17:28N 51°42' W 005°03'0 0.0
2018-Jun-22 16:58N 51°42' W 005°03'0 0.0
2018-Jun-22 16:28N 51°42' W 005°03'0 0.0
2018-Jun-22 15:58N 51°42' W 005°03'0 0.0
2018-Jun-22 15:28N 51°42' W 005°03'0 0.0
2018-Jun-22 14:58N 51°42' W 005°03'0 0.0
2018-Jun-22 14:28N 51°42' W 005°03'0 0.0
2018-Jun-22 13:58N 51°42' W 005°03'0 0.0
2018-Jun-22 13:28N 51°42' W 005°03'0 0.0
2018-Jun-22 12:55N 51°42' W 005°03'0 0.0
2018-Jun-22 12:28N 51°42' W 005°03'0 0.0
2018-Jun-22 11:58N 51°42' W 005°03'0 0.0
2018-Jun-22 11:28N 51°42' W 005°03'0 0.0
2018-Jun-22 10:58N 51°42' W 005°03'0 0.0
2018-Jun-22 10:28N 51°42' W 005°03'0 0.0
2018-Jun-22 09:58N 51°42' W 005°03'0 0.0
2018-Jun-22 09:28N 51°42' W 005°03'0 0.0
2018-Jun-22 08:58N 51°42' W 005°03'0 0.0
2018-Jun-22 08:28N 51°42' W 005°03'0 0.0
2018-Jun-22 07:58N 51°42' W 005°03'0 0.0
2018-Jun-22 07:28N 51°42' W 005°03'0 0.0
2018-Jun-22 06:58N 51°42' W 005°03'0 0.0
2018-Jun-22 06:28N 51°42' W 005°03'0 0.0
2018-Jun-22 05:58N 51°42' W 005°03'0 0.0
2018-Jun-22 05:28N 51°42' W 005°03'0 0.0
2018-Jun-22 04:58N 51°42' W 005°03'0 0.0
2018-Jun-22 04:28N 51°42' W 005°03'0 0.0
2018-Jun-22 03:58N 51°42' W 005°03'0 0.0
2018-Jun-22 03:28N 51°42' W 005°03'0 0.0
2018-Jun-22 02:58N 51°42' W 005°03'0 0.0
2018-Jun-22 02:28N 51°42' W 005°03'0 0.0
2018-Jun-22 01:58N 51°42' W 005°03'0 0.0
2018-Jun-22 01:28N 51°42' W 005°03'0 0.0
2018-Jun-22 00:58N 51°42' W 005°03'0 0.0
2018-Jun-22 00:28N 51°42' W 005°03'0 0.0
2018-Jun-21 23:58N 51°42' W 005°03'0 0.0
2018-Jun-21 23:28N 51°42' W 005°03'0 0.0
2018-Jun-21 22:58N 51°42' W 005°03'0 0.0
2018-Jun-21 22:28N 51°42' W 005°03'0 0.0
2018-Jun-21 21:58N 51°42' W 005°03'0 0.0
2018-Jun-21 21:28N 51°42' W 005°03'0 0.0
2018-Jun-21 20:58N 51°42' W 005°03'0 0.0
2018-Jun-21 20:28N 51°42' W 005°03'0 0.0
2018-Jun-21 19:58N 51°42' W 005°03'0 0.0
2018-Jun-21 19:28N 51°42' W 005°03'0 0.0
2018-Jun-21 18:55N 51°42' W 005°03'0 0.0
2018-Jun-21 18:28N 51°42' W 005°03'0 0.0
2018-Jun-21 17:58N 51°42' W 005°03'0 0.0
2018-Jun-21 17:28N 51°42' W 005°03'0 0.0
2018-Jun-21 16:58N 51°42' W 005°03'0 0.0
2018-Jun-21 16:28N 51°42' W 005°03'0 0.0
2018-Jun-21 15:58N 51°42' W 005°03'0 0.0
2018-Jun-21 15:28N 51°42' W 005°03'0 0.0
2018-Jun-21 14:58N 51°42' W 005°03'0 0.0
2018-Jun-21 14:28N 51°42' W 005°03'0 0.0
2018-Jun-21 13:58N 51°42' W 005°03'0 0.0
2018-Jun-21 13:28N 51°42' W 005°03'0 0.0
2018-Jun-21 12:58N 51°42' W 005°03'0 0.0
2018-Jun-21 12:25N 51°42' W 005°03'0 0.0
2018-Jun-21 11:49N 51°42' W 005°03'0 0.0
2018-Jun-21 11:28N 51°42' W 005°03'0 0.0
2018-Jun-21 10:58N 51°42' W 005°03'0 0.0
2018-Jun-21 10:25N 51°42' W 005°03'0 0.0
2018-Jun-21 09:58N 51°42' W 005°03'0 0.0
2018-Jun-21 09:19N 51°42' W 005°03'0 0.0
2018-Jun-21 08:52N 51°42' W 005°03'0 0.0
2018-Jun-21 08:28N 51°42' W 005°03'0 0.0
2018-Jun-21 07:58N 51°42' W 005°03'0 0.0
2018-Jun-21 07:25N 51°42' W 005°03'0 0.0
2018-Jun-21 06:58N 51°42' W 005°03'0 0.0
2018-Jun-21 06:28N 51°42' W 005°03'0 0.0
2018-Jun-21 05:58N 51°42' W 005°03'0 0.0
2018-Jun-21 05:28N 51°42' W 005°03'0 0.0
2018-Jun-21 04:58N 51°42' W 005°03'0 0.0
2018-Jun-21 04:28N 51°42' W 005°03'0 0.0
2018-Jun-21 03:58N 51°42' W 005°03'0 0.0
2018-Jun-21 03:28N 51°42' W 005°03'0 0.0
2018-Jun-21 02:58N 51°42' W 005°03'0 0.0
2018-Jun-21 02:28N 51°42' W 005°03'0 0.0
2018-Jun-21 01:58N 51°42' W 005°03'0 0.0
2018-Jun-21 01:28N 51°42' W 005°03'0 0.0
2018-Jun-21 00:55N 51°42' W 005°03'0 0.0
2018-Jun-21 00:28N 51°42' W 005°03'0 0.0
2018-Jun-21 00:00N 51°42' W 005°03'0 0.0
2018-Jun-20 23:30N 51°42' W 005°03'0 0.0
2018-Jun-20 23:00N 51°42' W 005°03'0 0.0
2018-Jun-20 22:30N 51°42' W 005°03'0 0.0
2018-Jun-20 22:00N 51°42' W 005°03'1 2.0
2018-Jun-20 21:30N 51°42' W 005°05'4 7.3
2018-Jun-20 21:00N 51°40' W 005°10'510.4
2018-Jun-20 20:30N 51°37' W 005°16'712.6
2018-Jun-20 19:59N 51°33' W 005°24'510.2
2018-Jun-20 19:30N 51°30' W 005°31'1 1.4
2018-Jun-20 19:00N 51°30' W 005°32'1 1.0
2018-Jun-20 18:30N 51°30' W 005°33'0 0.7
2018-Jun-20 18:00N 51°31' W 005°33'0 0.5
2018-Jun-20 17:30N 51°31' W 005°33'0 0.1
2018-Jun-20 17:00N 51°31' W 005°33'0 0.9
2018-Jun-20 16:30N 51°31' W 005°34'0 0.5
2018-Jun-20 16:01N 51°31' W 005°34'0 0.6
2018-Jun-20 15:30N 51°31' W 005°33'0 0.8
2018-Jun-20 15:00N 51°31' W 005°33'0 0.9
2018-Jun-20 14:30N 51°31' W 005°32'1 1.1
2018-Jun-20 14:00N 51°31' W 005°31'0 0.9
2018-Jun-20 13:30N 51°31' W 005°30'0 0.9
2018-Jun-20 13:00N 51°30' W 005°30'0 0.9
2018-Jun-20 12:30N 51°30' W 005°30'0 0.7
2018-Jun-20 12:00N 51°29' W 005°30'0 0.5
2018-Jun-20 11:30N 51°29' W 005°30'0 0.2
2018-Jun-20 10:54N 51°29' W 005°30'1 1.9
2018-Jun-20 10:30N 51°30' W 005°30'510.2
2018-Jun-20 10:00N 51°32' W 005°23'0 0.9
2018-Jun-20 09:30N 51°33' W 005°23'612.9
2018-Jun-20 09:00N 51°29' W 005°33'713.2
2018-Jun-20 08:30N 51°26' W 005°42'813.1
2018-Jun-20 07:52N 51°23' W 005°54'1613.0
2018-Jun-20 06:40N 51°18' W 006°18'612.6
2018-Jun-20 06:13N 51°16' W 006°26'512.6
2018-Jun-20 05:48N 51°14' W 006°34'412.5
2018-Jun-20 05:30N 51°13' W 006°39'4912.2
2018-Jun-20 01:29N 50°55' W 007°52'  
Track history (hours):
 
Tides and Currents Weather Stations Pressure Air Temp Water Temp Dewpoint Dewpoint Depression Visibility Wind Speed Wind Dir Waves Ship Positions

Gan-triumph

Last reported at 2018-Jun-25 08:00 UTC. Time now 2018-Jun-25 08:09 UTC.
Position N 46°19' W 004°42'.

Length 183 m; draft 8 m.

Type: Ship. MMSI: 311036700.

Date/timePositionNaut miles runAvg speedWind from/ knotsBaromVisibWave heightAir tempDewpointWater temp
2018-Jun-25 08:00N 46°19' W 004°42'713.4
2018-Jun-25 07:30N 46°25' W 004°45'612.9
2018-Jun-25 07:00N 46°31' W 004°49'612.3
2018-Jun-25 06:30N 46°37' W 004°52'612.3
2018-Jun-25 06:00N 46°42' W 004°56'612.6
2018-Jun-25 05:30N 46°48' W 004°59'612.8
2018-Jun-25 05:00N 46°54' W 005°02'713.2
2018-Jun-25 04:30N 47°01' W 005°05'713.3
2018-Jun-25 04:00N 47°07' W 005°08'713.5
2018-Jun-25 03:30N 47°13' W 005°11'612.9
2018-Jun-25 03:00N 47°19' W 005°15'713.4
2018-Jun-25 02:30N 47°25' W 005°18'713.5
2018-Jun-25 02:00N 47°32' W 005°22'613.0
2018-Jun-25 01:30N 47°38' W 005°26'713.5
2018-Jun-25 01:00N 47°44' W 005°30'612.9
2018-Jun-25 00:30N 47°50' W 005°34'613.0
2018-Jun-25 00:00N 47°56' W 005°37'712.5
2018-Jun-24 23:25N 48°03' W 005°40'1012.2
2018-Jun-24 22:35N 48°13' W 005°45'111.8
2018-Jun-24 22:29N 48°14' W 005°46'1112.3
2018-Jun-24 21:36N 48°23' W 005°53'212.4
2018-Jun-24 21:26N 48°25' W 005°55'512.5
2018-Jun-24 21:00N 48°30' W 005°59'713.6
2018-Jun-24 20:30N 48°36' W 006°02'813.7
2018-Jun-24 19:55N 48°44' W 006°00'614.2
2018-Jun-24 19:30N 48°49' W 005°56'714.3
2018-Jun-24 19:01N 48°55' W 005°50'714.3
2018-Jun-24 18:31N 48°59' W 005°41'714.4
2018-Jun-24 18:01N 49°03' W 005°32'713.6
2018-Jun-24 17:30N 49°10' W 005°29'713.6
2018-Jun-24 17:00N 49°16' W 005°25'713.4
2018-Jun-24 16:30N 49°23' W 005°22'713.1
2018-Jun-24 16:00N 49°29' W 005°18'712.9
2018-Jun-24 15:30N 49°35' W 005°15'612.7
2018-Jun-24 15:00N 49°41' W 005°12'612.6
2018-Jun-24 14:30N 49°47' W 005°09'812.5
2018-Jun-24 13:51N 49°55' W 005°05'412.7
2018-Jun-24 13:30N 49°59' W 005°03'612.5
2018-Jun-24 13:00N 50°05' W 005°01'3 0.4
2018-Jun-24 05:54N 50°08' W 005°03'0 0.0
2018-Jun-24 05:30N 50°08' W 005°03'1 2.8
2018-Jun-24 05:00N 50°06' W 005°02'5 9.5
2018-Jun-24 04:30N 50°02' W 005°02'5 9.7
2018-Jun-24 03:59N 49°57' W 005°04'613.0
2018-Jun-24 03:29N 49°50' W 005°06'613.2
2018-Jun-24 03:00N 49°44' W 005°09'610.9
2018-Jun-24 02:27N 49°41' W 005°17'613.4
2018-Jun-24 02:00N 49°41' W 005°26'713.5
2018-Jun-24 01:30N 49°41' W 005°36'713.2
2018-Jun-24 01:00N 49°44' W 005°45'713.2
2018-Jun-24 00:29N 49°47' W 005°55'612.5
2018-Jun-24 00:00N 49°51' W 006°01'713.4
2018-Jun-23 23:30N 49°58' W 006°01'612.8
2018-Jun-23 23:00N 50°04' W 006°01'612.5
2018-Jun-23 22:30N 50°10' W 006°01'612.5
2018-Jun-23 22:00N 50°17' W 006°01'612.8
2018-Jun-23 21:30N 50°23' W 006°01'612.8
2018-Jun-23 21:00N 50°30' W 006°00'612.9
2018-Jun-23 20:30N 50°36' W 005°58'713.5
2018-Jun-23 20:00N 50°42' W 005°55'713.5
2018-Jun-23 19:30N 50°49' W 005°51'713.6
2018-Jun-23 19:00N 50°55' W 005°46'713.7
2018-Jun-23 18:30N 51°01' W 005°41'713.6
2018-Jun-23 18:00N 51°07' W 005°37'713.5
2018-Jun-23 17:30N 51°13' W 005°32'713.3
2018-Jun-23 17:00N 51°19' W 005°28'713.2
2018-Jun-23 16:30N 51°25' W 005°23'713.3
2018-Jun-23 16:00N 51°31' W 005°18'613.0
2018-Jun-23 15:30N 51°37' W 005°14'4 8.0
2018-Jun-23 15:01N 51°40' W 005°11'5 9.8
2018-Jun-23 14:31N 51°42' W 005°03'0 0.3
2018-Jun-23 13:58N 51°42' W 005°03'0 0.0
2018-Jun-23 13:28N 51°42' W 005°03'0 0.0
2018-Jun-23 12:58N 51°42' W 005°03'0 0.0
2018-Jun-23 12:28N 51°42' W 005°03'0 0.0
2018-Jun-23 11:58N 51°42' W 005°03'0 0.0
2018-Jun-23 11:25N 51°42' W 005°03'0 0.0
2018-Jun-23 10:58N 51°42' W 005°03'0 0.0
2018-Jun-23 10:28N 51°42' W 005°03'0 0.0
2018-Jun-23 09:58N 51°42' W 005°03'0 0.0
2018-Jun-23 09:25N 51°42' W 005°03'0 0.0
2018-Jun-23 08:58N 51°42' W 005°03'0 0.0
2018-Jun-23 08:28N 51°42' W 005°03'0 0.0
2018-Jun-23 07:58N 51°42' W 005°03'0 0.0
2018-Jun-23 07:28N 51°42' W 005°03'0 0.0
2018-Jun-23 06:58N 51°42' W 005°03'0 0.0
2018-Jun-23 06:28N 51°42' W 005°03'0 0.0
2018-Jun-23 05:58N 51°42' W 005°03'0 0.0
2018-Jun-23 05:28N 51°42' W 005°03'0 0.0
2018-Jun-23 04:58N 51°42' W 005°03'0 0.0
2018-Jun-23 04:28N 51°42' W 005°03'0 0.0
2018-Jun-23 03:58N 51°42' W 005°03'0 0.0
2018-Jun-23 03:28N 51°42' W 005°03'0 0.0
2018-Jun-23 02:58N 51°42' W 005°03'0 0.0
2018-Jun-23 02:28N 51°42' W 005°03'0 0.0
2018-Jun-23 01:58N 51°42' W 005°03'0 0.0
2018-Jun-23 01:28N 51°42' W 005°03'0 0.0
2018-Jun-23 00:58N 51°42' W 005°03'0 0.0
2018-Jun-23 00:28N 51°42' W 005°03'0 0.0
2018-Jun-22 23:58N 51°42' W 005°03'0 0.0
2018-Jun-22 23:28N 51°42' W 005°03'0 0.0
2018-Jun-22 22:55N 51°42' W 005°03'0 0.0
2018-Jun-22 22:28N 51°42' W 005°03'0 0.0
2018-Jun-22 21:58N 51°42' W 005°03'0 0.0
2018-Jun-22 21:28N 51°42' W 005°03'0 0.0
2018-Jun-22 20:58N 51°42' W 005°03'0 0.0
2018-Jun-22 20:28N 51°42' W 005°03'0 0.0
2018-Jun-22 19:58N 51°42' W 005°03'0 0.0
2018-Jun-22 19:28N 51°42' W 005°03'0 0.0
2018-Jun-22 18:58N 51°42' W 005°03'0 0.0
2018-Jun-22 18:28N 51°42' W 005°03'0 0.0
2018-Jun-22 17:58N 51°42' W 005°03'0 0.0
2018-Jun-22 17:28N 51°42' W 005°03'0 0.0
2018-Jun-22 16:58N 51°42' W 005°03'0 0.0
2018-Jun-22 16:28N 51°42' W 005°03'0 0.0
2018-Jun-22 15:58N 51°42' W 005°03'0 0.0
2018-Jun-22 15:28N 51°42' W 005°03'0 0.0
2018-Jun-22 14:58N 51°42' W 005°03'0 0.0
2018-Jun-22 14:28N 51°42' W 005°03'0 0.0
2018-Jun-22 13:58N 51°42' W 005°03'0 0.0
2018-Jun-22 13:28N 51°42' W 005°03'0 0.0
2018-Jun-22 12:55N 51°42' W 005°03'0 0.0
2018-Jun-22 12:28N 51°42' W 005°03'0 0.0
2018-Jun-22 11:58N 51°42' W 005°03'0 0.0
2018-Jun-22 11:28N 51°42' W 005°03'0 0.0
2018-Jun-22 10:58N 51°42' W 005°03'0 0.0
2018-Jun-22 10:28N 51°42' W 005°03'0 0.0
2018-Jun-22 09:58N 51°42' W 005°03'0 0.0
2018-Jun-22 09:28N 51°42' W 005°03'0 0.0
2018-Jun-22 08:58N 51°42' W 005°03'0 0.0
2018-Jun-22 08:28N 51°42' W 005°03'0 0.0
2018-Jun-22 07:58N 51°42' W 005°03'0 0.0
2018-Jun-22 07:28N 51°42' W 005°03'0 0.0
2018-Jun-22 06:58N 51°42' W 005°03'0 0.0
2018-Jun-22 06:28N 51°42' W 005°03'0 0.0
2018-Jun-22 05:58N 51°42' W 005°03'0 0.0
2018-Jun-22 05:28N 51°42' W 005°03'0 0.0
2018-Jun-22 04:58N 51°42' W 005°03'0 0.0
2018-Jun-22 04:28N 51°42' W 005°03'0 0.0
2018-Jun-22 03:58N 51°42' W 005°03'0 0.0
2018-Jun-22 03:28N 51°42' W 005°03'0 0.0
2018-Jun-22 02:58N 51°42' W 005°03'0 0.0
2018-Jun-22 02:28N 51°42' W 005°03'0 0.0
2018-Jun-22 01:58N 51°42' W 005°03'0 0.0
2018-Jun-22 01:28N 51°42' W 005°03'0 0.0
2018-Jun-22 00:58N 51°42' W 005°03'0 0.0
2018-Jun-22 00:28N 51°42' W 005°03'0 0.0
2018-Jun-21 23:58N 51°42' W 005°03'0 0.0
2018-Jun-21 23:28N 51°42' W 005°03'0 0.0
2018-Jun-21 22:58N 51°42' W 005°03'0 0.0
2018-Jun-21 22:28N 51°42' W 005°03'0 0.0
2018-Jun-21 21:58N 51°42' W 005°03'0 0.0
2018-Jun-21 21:28N 51°42' W 005°03'0 0.0
2018-Jun-21 20:58N 51°42' W 005°03'0 0.0
2018-Jun-21 20:28N 51°42' W 005°03'0 0.0
2018-Jun-21 19:58N 51°42' W 005°03'0 0.0
2018-Jun-21 19:28N 51°42' W 005°03'0 0.0
2018-Jun-21 18:55N 51°42' W 005°03'0 0.0
2018-Jun-21 18:28N 51°42' W 005°03'0 0.0
2018-Jun-21 17:58N 51°42' W 005°03'0 0.0
2018-Jun-21 17:28N 51°42' W 005°03'0 0.0
2018-Jun-21 16:58N 51°42' W 005°03'0 0.0
2018-Jun-21 16:28N 51°42' W 005°03'0 0.0
2018-Jun-21 15:58N 51°42' W 005°03'0 0.0
2018-Jun-21 15:28N 51°42' W 005°03'0 0.0
2018-Jun-21 14:58N 51°42' W 005°03'0 0.0
2018-Jun-21 14:28N 51°42' W 005°03'0 0.0
2018-Jun-21 13:58N 51°42' W 005°03'0 0.0
2018-Jun-21 13:28N 51°42' W 005°03'0 0.0
2018-Jun-21 12:58N 51°42' W 005°03'0 0.0
2018-Jun-21 12:25N 51°42' W 005°03'0 0.0
2018-Jun-21 11:49N 51°42' W 005°03'0 0.0
2018-Jun-21 11:28N 51°42' W 005°03'0 0.0
2018-Jun-21 10:58N 51°42' W 005°03'0 0.0
2018-Jun-21 10:25N 51°42' W 005°03'0 0.0
2018-Jun-21 09:58N 51°42' W 005°03'0 0.0
2018-Jun-21 09:19N 51°42' W 005°03'0 0.0
2018-Jun-21 08:52N 51°42' W 005°03'0 0.0
2018-Jun-21 08:28N 51°42' W 005°03'0 0.0
2018-Jun-21 07:58N 51°42' W 005°03'0 0.0
2018-Jun-21 07:25N 51°42' W 005°03'0 0.0
2018-Jun-21 06:58N 51°42' W 005°03'0 0.0
2018-Jun-21 06:28N 51°42' W 005°03'0 0.0
2018-Jun-21 05:58N 51°42' W 005°03'0 0.0
2018-Jun-21 05:28N 51°42' W 005°03'0 0.0
2018-Jun-21 04:58N 51°42' W 005°03'0 0.0
2018-Jun-21 04:28N 51°42' W 005°03'0 0.0
2018-Jun-21 03:58N 51°42' W 005°03'0 0.0
2018-Jun-21 03:28N 51°42' W 005°03'0 0.0
2018-Jun-21 02:58N 51°42' W 005°03'0 0.0
2018-Jun-21 02:28N 51°42' W 005°03'0 0.0
2018-Jun-21 01:58N 51°42' W 005°03'0 0.0
2018-Jun-21 01:28N 51°42' W 005°03'0 0.0
2018-Jun-21 00:55N 51°42' W 005°03'0 0.0
2018-Jun-21 00:28N 51°42' W 005°03'0 0.0
2018-Jun-21 00:00N 51°42' W 005°03'0 0.0
2018-Jun-20 23:30N 51°42' W 005°03'0 0.0
2018-Jun-20 23:00N 51°42' W 005°03'0 0.0
2018-Jun-20 22:30N 51°42' W 005°03'0 0.0
2018-Jun-20 22:00N 51°42' W 005°03'1 2.0
2018-Jun-20 21:30N 51°42' W 005°05'4 7.3
2018-Jun-20 21:00N 51°40' W 005°10'510.4
2018-Jun-20 20:30N 51°37' W 005°16'712.6
2018-Jun-20 19:59N 51°33' W 005°24'510.2
2018-Jun-20 19:30N 51°30' W 005°31'1 1.4
2018-Jun-20 19:00N 51°30' W 005°32'1 1.0
2018-Jun-20 18:30N 51°30' W 005°33'0 0.7
2018-Jun-20 18:00N 51°31' W 005°33'0 0.5
2018-Jun-20 17:30N 51°31' W 005°33'0 0.1
2018-Jun-20 17:00N 51°31' W 005°33'0 0.9
2018-Jun-20 16:30N 51°31' W 005°34'0 0.5
2018-Jun-20 16:01N 51°31' W 005°34'0 0.6
2018-Jun-20 15:30N 51°31' W 005°33'0 0.8
2018-Jun-20 15:00N 51°31' W 005°33'0 0.9
2018-Jun-20 14:30N 51°31' W 005°32'1 1.1
2018-Jun-20 14:00N 51°31' W 005°31'0 0.9
2018-Jun-20 13:30N 51°31' W 005°30'0 0.9
2018-Jun-20 13:00N 51°30' W 005°30'0 0.9
2018-Jun-20 12:30N 51°30' W 005°30'0 0.7
2018-Jun-20 12:00N 51°29' W 005°30'0 0.5
2018-Jun-20 11:30N 51°29' W 005°30'0 0.2
2018-Jun-20 10:54N 51°29' W 005°30'1 1.9
2018-Jun-20 10:30N 51°30' W 005°30'510.2
2018-Jun-20 10:00N 51°32' W 005°23'0 0.9
2018-Jun-20 09:30N 51°33' W 005°23'612.9
2018-Jun-20 09:00N 51°29' W 005°33'713.2
2018-Jun-20 08:30N 51°26' W 005°42'813.1
2018-Jun-20 07:52N 51°23' W 005°54'1613.0
2018-Jun-20 06:40N 51°18' W 006°18'612.6
2018-Jun-20 06:13N 51°16' W 006°26'512.6
2018-Jun-20 05:48N 51°14' W 006°34'412.5
2018-Jun-20 05:30N 51°13' W 006°39'4912.2
2018-Jun-20 01:29N 50°55' W 007°52'  

Dump ship's entire track history